Time;durP1;ratioP1;P1;durP2;ratioP2;P2;SDS_P1;SDS_P2;PMS_P1;PMS_P2;Temp;Humidity;BMP_temperature;BMP_pressure;BME280_temperature;BME280_humidity;BME280_pressure;Samples;Min_cycle;Max_cycle;Signal;HPM_P1;HPM_P2
2024/04/06 00:00:09;;;;;;;4.73;2.07;;;14.10;99.90;;;;;;484343;245;28565;-74
2024/04/06 00:02:10;;;;;;;2.30;1.90;;;14.10;99.90;;;;;;484205;245;29006;-74
2024/04/06 00:04:11;;;;;;;3.33;2.17;;;14.10;99.90;;;;;;484336;245;28481;-74
2024/04/06 00:06:13;;;;;;;1.90;1.63;;;14.10;99.90;;;;;;484318;245;29354;-72
2024/04/06 00:08:14;;;;;;;2.10;1.90;;;14.10;99.90;;;;;;484316;245;29102;-73
2024/04/06 00:10:15;;;;;;;2.73;1.70;;;14.10;99.90;;;;;;484333;245;28925;-72
2024/04/06 00:12:16;;;;;;;4.80;1.57;;;14.20;99.90;;;;;;484220;245;28997;-73
2024/04/06 00:14:20;;;;;;;5.23;1.90;;;14.10;99.90;;;;;;484317;245;28338;-72
2024/04/06 00:16:22;;;;;;;3.70;2.20;;;14.20;99.90;;;;;;484312;245;28522;-73
2024/04/06 00:18:23;;;;;;;3.27;1.60;;;14.30;99.90;;;;;;484326;245;28611;-73
2024/04/06 00:20:24;;;;;;;1.60;1.50;;;14.10;99.90;;;;;;484356;242;28423;-74
2024/04/06 00:22:26;;;;;;;3.83;1.60;;;14.10;99.90;;;;;;484319;245;28555;-72
2024/04/06 00:24:27;;;;;;;4.03;1.60;;;14.00;99.90;;;;;;484317;245;28315;-71
2024/04/06 00:26:28;;;;;;;2.50;1.70;;;14.00;99.90;;;;;;484340;245;28589;-74
2024/04/06 00:28:29;;;;;;;3.50;1.73;;;14.00;99.90;;;;;;484340;245;28494;-72
2024/04/06 00:30:30;;;;;;;2.10;1.53;;;14.00;99.90;;;;;;484300;245;28465;-73
2024/04/06 00:32:32;;;;;;;7.43;2.20;;;14.10;99.90;;;;;;484299;245;28717;-72
2024/04/06 00:34:33;;;;;;;3.07;1.90;;;14.10;99.90;;;;;;484267;243;29018;-72
2024/04/06 00:36:35;;;;;;;3.27;1.90;;;14.10;99.90;;;;;;484301;245;28972;-73
2024/04/06 00:38:36;;;;;;;6.47;2.17;;;14.00;99.90;;;;;;484135;245;29034;-72
2024/04/06 00:40:37;;;;;;;5.60;1.80;;;14.00;99.90;;;;;;484266;245;28248;-71
2024/04/06 00:42:38;;;;;;;2.10;1.73;;;14.10;99.90;;;;;;484271;245;28406;-72
2024/04/06 00:44:39;;;;;;;3.27;1.70;;;14.00;99.90;;;;;;484297;245;28501;-74
2024/04/06 00:46:40;;;;;;;3.80;1.60;;;14.10;99.90;;;;;;484301;245;28386;-75
2024/04/06 00:48:42;;;;;;;3.23;1.70;;;14.10;99.90;;;;;;484281;245;28183;-74
2024/04/06 00:50:43;;;;;;;3.40;1.83;;;14.00;99.90;;;;;;484279;242;28542;-75
2024/04/06 00:52:44;;;;;;;3.67;1.83;;;14.00;99.90;;;;;;484305;245;28374;-74
2024/04/06 00:54:45;;;;;;;2.63;2.10;;;14.00;99.90;;;;;;484353;245;28507;-74
2024/04/06 00:56:49;;;;;;;4.40;1.63;;;14.00;99.90;;;;;;484318;245;28889;-74
2024/04/06 00:58:48;;;;;;;2.13;1.67;;;13.90;99.90;;;;;;484149;245;28925;-74
2024/04/06 01:00:49;;;;;;;1.80;1.40;;;14.00;99.90;;;;;;484310;245;29143;-74
2024/04/06 01:02:50;;;;;;;2.17;1.73;;;14.00;99.90;;;;;;484337;245;28845;-76
2024/04/06 01:04:52;;;;;;;2.73;1.87;;;14.00;99.90;;;;;;484331;245;28635;-72
2024/04/06 01:06:54;;;;;;;3.63;1.73;;;14.00;99.90;;;;;;484292;245;28640;-72
2024/04/06 01:08:54;;;;;;;2.30;1.73;;;13.90;99.90;;;;;;484243;245;28335;-72
2024/04/06 01:10:56;;;;;;;2.60;1.70;;;13.90;99.90;;;;;;484261;245;28439;-74
2024/04/06 01:12:57;;;;;;;1.97;1.70;;;13.90;99.90;;;;;;484280;245;28768;-74
2024/04/06 01:14:58;;;;;;;2.00;1.47;;;13.80;99.90;;;;;;484319;245;28361;-72
2024/04/06 01:16:59;;;;;;;2.43;1.90;;;13.80;99.90;;;;;;484289;245;28417;-74
2024/04/06 01:19:00;;;;;;;2.40;1.67;;;13.70;99.90;;;;;;484309;245;28229;-73
2024/04/06 01:21:03;;;;;;;1.57;1.20;;;13.70;99.90;;;;;;484335;245;28364;-74
2024/04/06 01:23:03;;;;;;;1.33;1.23;;;13.70;99.90;;;;;;484267;245;29466;-73
2024/04/06 01:25:06;;;;;;;3.23;1.60;;;13.60;99.90;;;;;;484352;245;29305;-72
2024/04/06 01:27:06;;;;;;;5.30;1.80;;;13.60;99.90;;;;;;484288;245;28791;-72
2024/04/06 01:29:07;;;;;;;8.53;2.20;;;13.60;99.90;;;;;;484369;245;28440;-74
2024/04/06 01:31:09;;;;;;;2.90;1.63;;;13.70;99.90;;;;;;484376;245;28527;-73
2024/04/06 01:33:09;;;;;;;2.30;1.50;;;13.70;99.90;;;;;;484306;245;28427;-74
2024/04/06 01:35:10;;;;;;;2.50;1.40;;;13.80;99.90;;;;;;484348;245;28197;-75
2024/04/06 01:37:12;;;;;;;3.13;2.03;;;13.80;99.90;;;;;;484347;245;28220;-74
2024/04/06 01:39:13;;;;;;;4.50;1.97;;;13.70;99.90;;;;;;484386;245;28553;-73
2024/04/06 01:41:14;;;;;;;4.93;1.60;;;13.80;99.90;;;;;;484373;245;28261;-72
2024/04/06 01:43:15;;;;;;;2.50;1.53;;;13.80;99.90;;;;;;484377;245;28615;-72
2024/04/06 01:45:17;;;;;;;4.13;1.63;;;13.80;99.90;;;;;;484362;245;28277;-72
2024/04/06 01:47:18;;;;;;;5.10;1.60;;;13.80;99.90;;;;;;484377;245;28683;-72
2024/04/06 01:49:19;;;;;;;5.17;1.60;;;13.70;99.90;;;;;;484396;245;29025;-73
2024/04/06 01:51:20;;;;;;;2.47;1.40;;;13.70;99.90;;;;;;484355;245;28877;-74
2024/04/06 01:53:22;;;;;;;5.70;1.70;;;13.70;99.90;;;;;;484349;245;28443;-74
2024/04/06 01:55:23;;;;;;;2.67;1.80;;;13.70;99.90;;;;;;484316;245;28451;-73
2024/04/06 01:57:24;;;;;;;3.10;1.50;;;13.70;99.90;;;;;;484360;245;28512;-74
2024/04/06 01:59:25;;;;;;;2.03;1.60;;;13.60;99.90;;;;;;484340;245;28319;-74
2024/04/06 02:01:27;;;;;;;3.50;1.50;;;13.60;99.90;;;;;;484345;245;28216;-74
2024/04/06 02:03:28;;;;;;;3.23;1.50;;;13.50;99.90;;;;;;484317;245;28341;-74
2024/04/06 02:05:29;;;;;;;1.33;1.20;;;13.50;99.90;;;;;;484341;245;28240;-75
2024/04/06 02:07:30;;;;;;;1.90;1.40;;;13.60;99.90;;;;;;484346;245;28268;-73
2024/04/06 02:09:32;;;;;;;4.53;1.40;;;13.60;99.90;;;;;;484308;245;28204;-74
2024/04/06 02:11:33;;;;;;;1.50;1.40;;;13.50;99.90;;;;;;484307;245;28734;-74
2024/04/06 02:13:34;;;;;;;2.00;1.60;;;13.60;99.90;;;;;;484294;245;28839;-74
2024/04/06 02:15:36;;;;;;;1.67;1.47;;;13.50;99.90;;;;;;484348;245;28780;-74
2024/04/06 02:17:37;;;;;;;3.27;1.50;;;13.60;99.90;;;;;;484341;245;28708;-74
2024/04/06 02:19:38;;;;;;;2.10;1.77;;;13.70;99.90;;;;;;484292;245;28236;-72
2024/04/06 02:21:39;;;;;;;2.10;1.63;;;13.70;99.90;;;;;;484319;245;28317;-71
2024/04/06 02:23:40;;;;;;;1.50;1.40;;;13.70;99.90;;;;;;484351;245;28555;-72
2024/04/06 02:25:42;;;;;;;1.80;1.50;;;13.70;99.90;;;;;;484345;245;28545;-73
2024/04/06 02:27:43;;;;;;;2.53;1.57;;;13.60;99.90;;;;;;484334;245;28270;-72
2024/04/06 02:29:45;;;;;;;2.30;1.50;;;13.60;99.90;;;;;;484313;245;28448;-74
2024/04/06 02:31:46;;;;;;;1.53;1.43;;;13.50;99.90;;;;;;484304;245;28225;-74
2024/04/06 02:33:47;;;;;;;1.50;1.40;;;13.50;99.90;;;;;;484342;245;28373;-72
2024/04/06 02:35:48;;;;;;;3.33;1.63;;;13.50;99.90;;;;;;484304;245;28306;-75
2024/04/06 02:37:49;;;;;;;3.37;1.87;;;13.40;99.90;;;;;;484338;245;28911;-72
2024/04/06 02:39:52;;;;;;;1.50;1.40;;;;;;;;;;484302;245;28879;-73
2024/04/06 02:41:53;;;;;;;1.17;1.17;;;13.40;99.90;;;;;;484336;245;26489;-74
2024/04/06 02:43:54;;;;;;;5.90;1.67;;;13.50;99.90;;;;;;484326;245;28291;-75
2024/04/06 02:45:55;;;;;;;1.63;1.50;;;13.40;99.90;;;;;;484314;245;28248;-73
2024/04/06 02:47:57;;;;;;;2.07;1.87;;;13.40;99.90;;;;;;484317;245;28380;-74
2024/04/06 02:49:58;;;;;;;1.73;1.47;;;13.40;99.90;;;;;;484335;245;28890;-75
2024/04/06 02:51:59;;;;;;;1.50;1.40;;;13.40;99.90;;;;;;484347;245;28751;-72
2024/04/06 02:54:00;;;;;;;4.70;1.60;;;13.40;99.90;;;;;;484332;245;28677;-72
2024/04/06 02:56:02;;;;;;;1.83;1.30;;;13.40;99.90;;;;;;484343;245;29399;-73
2024/04/06 02:58:03;;;;;;;4.67;1.23;;;13.40;99.90;;;;;;484357;245;28185;-74
2024/04/06 03:00:04;;;;;;;1.80;1.20;;;13.40;99.90;;;;;;484339;245;28217;-75
2024/04/06 03:02:07;;;;;;;1.77;1.53;;;13.40;99.90;;;;;;484338;245;28354;-74
2024/04/06 03:04:07;;;;;;;2.40;1.47;;;13.40;99.90;;;;;;484176;245;28231;-73
2024/04/06 03:06:08;;;;;;;1.50;1.30;;;13.40;99.90;;;;;;484340;245;28430;-74
2024/04/06 03:08:09;;;;;;;3.20;1.70;;;13.40;99.90;;;;;;484352;245;28226;-72
2024/04/06 03:10:10;;;;;;;1.77;1.57;;;13.40;99.90;;;;;;484342;245;28351;-72
2024/04/06 03:12:12;;;;;;;1.67;1.50;;;13.50;99.90;;;;;;484325;245;28402;-72
2024/04/06 03:14:13;;;;;;;1.60;1.50;;;13.40;99.90;;;;;;484317;245;28224;-74
2024/04/06 03:16:14;;;;;;;1.97;1.60;;;13.40;99.90;;;;;;484343;245;28765;-74
2024/04/06 03:18:15;;;;;;;2.20;1.73;;;13.40;99.90;;;;;;484337;245;28898;-72
2024/04/06 03:20:17;;;;;;;2.37;1.57;;;13.40;99.90;;;;;;484255;245;28818;-75
2024/04/06 03:22:18;;;;;;;2.20;1.87;;;13.40;99.90;;;;;;484320;245;28314;-74
2024/04/06 03:24:19;;;;;;;2.70;1.30;;;13.40;99.90;;;;;;484334;245;28247;-74
2024/04/06 03:26:20;;;;;;;1.40;1.30;;;13.40;99.90;;;;;;484335;245;28301;-76
2024/04/06 03:28:22;;;;;;;1.40;1.30;;;13.40;99.90;;;;;;484317;245;28258;-73
2024/04/06 03:30:23;;;;;;;2.23;1.60;;;13.30;99.90;;;;;;484331;245;28440;-72
2024/04/06 03:32:25;;;;;;;2.23;1.50;;;;;;;;;;484287;245;28883;-72
2024/04/06 03:34:27;;;;;;;4.87;1.60;;;13.30;99.90;;;;;;484337;245;26659;-73
2024/04/06 03:36:28;;;;;;;1.50;1.40;;;13.40;99.90;;;;;;484320;245;28259;-71
2024/04/06 03:38:29;;;;;;;2.30;1.20;;;13.30;99.90;;;;;;484326;245;28240;-72
2024/04/06 03:40:30;;;;;;;3.37;2.07;;;13.20;99.90;;;;;;484317;245;28337;-72
2024/04/06 03:42:32;;;;;;;1.97;1.40;;;13.20;99.90;;;;;;484349;245;28170;-73
2024/04/06 03:44:33;;;;;;;2.03;1.30;;;13.10;99.90;;;;;;484315;245;28856;-74
2024/04/06 03:46:34;;;;;;;2.90;1.40;;;13.10;99.90;;;;;;484271;245;28168;-72
2024/04/06 03:48:35;;;;;;;2.70;1.43;;;13.10;99.90;;;;;;484261;245;28590;-72
2024/04/06 03:50:37;;;;;;;2.20;1.50;;;13.10;99.90;;;;;;484326;245;28385;-75
2024/04/06 03:52:38;;;;;;;2.67;1.50;;;13.10;99.90;;;;;;484318;242;28608;-71
2024/04/06 03:54:39;;;;;;;1.70;1.60;;;13.10;99.90;;;;;;484332;245;28905;-74
2024/04/06 03:56:40;;;;;;;1.90;1.50;;;13.10;99.90;;;;;;484288;245;28698;-74
2024/04/06 03:58:42;;;;;;;3.20;1.47;;;13.10;99.90;;;;;;484125;245;28195;-71
2024/04/06 04:00:43;;;;;;;2.53;1.63;;;13.10;99.90;;;;;;484322;245;28241;-74
2024/04/06 04:02:44;;;;;;;1.60;1.37;;;13.20;99.90;;;;;;484272;245;28275;-72
2024/04/06 04:04:45;;;;;;;3.67;1.50;;;13.10;99.90;;;;;;484187;245;28343;-73
2024/04/06 04:06:47;;;;;;;1.60;1.20;;;13.10;99.90;;;;;;484338;245;28165;-73
2024/04/06 04:08:49;;;;;;;1.77;1.67;;;;;;;;;;484312;245;28805;-72
2024/04/06 04:10:51;;;;;;;1.50;1.40;;;13.20;99.90;;;;;;484330;245;26601;-71
2024/04/06 04:12:52;;;;;;;2.50;1.60;;;13.30;99.90;;;;;;484318;245;28120;-73
2024/04/06 04:14:53;;;;;;;2.33;1.63;;;13.30;99.90;;;;;;484311;245;28324;-74
2024/04/06 04:16:54;;;;;;;2.73;1.67;;;13.40;99.90;;;;;;484329;245;28172;-72
2024/04/06 04:18:55;;;;;;;1.60;1.50;;;13.30;99.90;;;;;;484303;245;28237;-72
2024/04/06 04:20:57;;;;;;;2.27;1.60;;;13.20;99.90;;;;;;484311;245;28173;-72
2024/04/06 04:22:58;;;;;;;2.23;1.40;;;13.30;99.90;;;;;;484285;245;28347;-72
2024/04/06 04:24:59;;;;;;;2.50;1.97;;;13.20;99.90;;;;;;484319;245;28662;-76
2024/04/06 04:27:00;;;;;;;1.50;1.40;;;13.10;99.90;;;;;;484321;245;28251;-73
2024/04/06 04:29:02;;;;;;;3.60;1.30;;;13.10;99.90;;;;;;484337;245;28783;-72
2024/04/06 04:31:03;;;;;;;2.90;1.60;;;13.10;99.90;;;;;;484296;245;28702;-72
2024/04/06 04:33:04;;;;;;;2.70;1.37;;;13.10;99.90;;;;;;484285;245;28691;-74
2024/04/06 04:35:05;;;;;;;2.00;1.47;;;13.00;99.90;;;;;;484337;245;28719;-76
2024/04/06 04:37:07;;;;;;;1.43;1.33;;;13.00;99.90;;;;;;484306;245;28388;-72
2024/04/06 04:39:08;;;;;;;3.47;1.43;;;13.00;99.90;;;;;;484336;242;28318;-74
2024/04/06 04:41:10;;;;;;;1.50;1.40;;;;;;;;;;484319;245;28400;-73
2024/04/06 04:43:12;;;;;;;1.50;1.40;;;13.00;99.90;;;;;;484342;245;27430;-73
2024/04/06 04:45:13;;;;;;;1.50;1.40;;;13.10;99.90;;;;;;484372;245;28624;-72
2024/04/06 04:47:14;;;;;;;1.70;1.60;;;13.00;99.90;;;;;;484346;245;28723;-72
2024/04/06 04:49:16;;;;;;;2.87;1.53;;;13.00;99.90;;;;;;484329;245;28490;-72
2024/04/06 04:51:17;;;;;;;1.20;1.10;;;13.00;99.90;;;;;;484332;245;28223;-73
2024/04/06 04:53:18;;;;;;;6.43;1.40;;;13.00;99.90;;;;;;484314;245;28306;-75
2024/04/06 04:55:19;;;;;;;4.90;1.77;;;13.00;99.90;;;;;;484306;245;28275;-72
2024/04/06 04:57:20;;;;;;;1.53;1.17;;;13.10;99.90;;;;;;484260;245;28391;-72
2024/04/06 04:59:22;;;;;;;1.60;1.50;;;13.00;99.90;;;;;;484324;245;29181;-75
2024/04/06 05:01:24;;;;;;;1.50;1.40;;;;;;;;;;484311;245;28884;-73
2024/04/06 05:03:25;;;;;;;1.50;1.40;;;12.90;99.90;;;;;;484327;245;26477;-72
2024/04/06 05:05:27;;;;;;;4.20;1.40;;;13.00;99.90;;;;;;484312;245;28307;-74
2024/04/06 05:07:28;;;;;;;1.40;1.30;;;13.00;99.90;;;;;;484341;245;28245;-74
2024/04/06 05:09:29;;;;;;;2.90;1.43;;;13.10;99.90;;;;;;484317;245;28282;-72
2024/04/06 05:11:30;;;;;;;2.23;1.50;;;13.10;99.90;;;;;;484320;245;28930;-74
2024/04/06 05:13:32;;;;;;;2.20;1.27;;;13.20;99.90;;;;;;484303;245;28172;-74
2024/04/06 05:15:33;;;;;;;2.00;1.80;;;13.20;99.90;;;;;;484331;245;28642;-75
2024/04/06 05:17:37;;;;;;;1.10;1.10;;;13.20;99.90;;;;;;484345;242;28220;-74
2024/04/06 05:19:38;;;;;;;2.60;1.60;;;13.30;99.90;;;;;;484362;245;28205;-72
2024/04/06 05:21:41;;;;;;;3.80;1.73;;;;;;;;;;484329;245;28282;-71
2024/04/06 05:23:43;;;;;;;1.80;1.50;;;;;;;;;;484353;245;26964;-72
2024/04/06 05:25:44;;;;;;;4.07;1.27;;;13.30;99.90;;;;;;484358;245;27110;-73
2024/04/06 05:27:46;;;;;;;2.10;1.47;;;13.40;99.90;;;;;;484271;245;28745;-73
2024/04/06 05:29:47;;;;;;;6.13;1.80;;;13.40;99.90;;;;;;484314;245;28900;-74
2024/04/06 05:31:50;;;;;;;1.67;1.57;;;13.40;99.90;;;;;;484335;245;28241;-74
2024/04/06 05:33:49;;;;;;;2.53;1.40;;;13.40;99.90;;;;;;484256;245;28286;-71
2024/04/06 05:35:52;;;;;;;2.27;1.30;;;;;;;;;;484345;245;28211;-72
2024/04/06 05:37:53;;;;;;;9.60;1.77;;;13.40;99.90;;;;;;484348;245;26517;-73
2024/04/06 05:39:55;;;;;;;2.90;1.83;;;13.50;99.90;;;;;;484372;245;28685;-74
2024/04/06 05:41:56;;;;;;;3.90;1.40;;;13.60;99.90;;;;;;484329;245;28951;-73
2024/04/06 05:43:57;;;;;;;1.37;1.27;;;13.60;99.90;;;;;;484352;245;28769;-72
2024/04/06 05:45:58;;;;;;;1.50;1.40;;;13.70;99.90;;;;;;484303;245;28458;-74
2024/04/06 05:48:08;;;;;;;2.07;1.60;;;13.70;99.90;;;;;;484364;245;28363;-72
2024/04/06 05:50:01;;;;;;;1.50;1.30;;;13.80;99.90;;;;;;483909;245;28212;-72
2024/04/06 05:52:02;;;;;;;2.03;1.70;;;13.90;99.90;;;;;;484329;242;28392;-72
2024/04/06 05:54:03;;;;;;;1.50;1.17;;;13.90;99.80;;;;;;484345;245;28226;-74
2024/04/06 05:56:04;;;;;;;2.53;1.47;;;14.00;99.80;;;;;;484336;245;28552;-73
2024/04/06 05:58:06;;;;;;;6.80;1.77;;;14.10;99.60;;;;;;484349;245;28314;-72
2024/04/06 06:00:09;;;;;;;2.13;1.30;;;14.10;99.90;;;;;;484337;245;28627;-73
2024/04/06 06:02:08;;;;;;;1.67;1.37;;;14.10;99.60;;;;;;484155;245;28481;-74
2024/04/06 06:04:09;;;;;;;1.50;1.40;;;14.20;99.30;;;;;;484306;245;29321;-74
2024/04/06 06:06:11;;;;;;;1.47;1.30;;;14.30;99.40;;;;;;484346;245;29330;-74
2024/04/06 06:08:12;;;;;;;2.60;1.70;;;14.30;99.20;;;;;;484336;245;29252;-74
2024/04/06 06:10:13;;;;;;;2.13;1.50;;;14.30;99.20;;;;;;484323;245;28839;-72
2024/04/06 06:12:14;;;;;;;1.87;1.40;;;14.30;99.40;;;;;;484311;245;28793;-72
2024/04/06 06:14:16;;;;;;;1.63;1.30;;;14.40;99.20;;;;;;484336;245;28570;-72
2024/04/06 06:16:17;;;;;;;1.80;1.50;;;14.50;99.20;;;;;;484355;245;28858;-73
2024/04/06 06:18:18;;;;;;;6.27;1.67;;;14.50;99.10;;;;;;484323;245;28831;-72
2024/04/06 06:20:19;;;;;;;1.67;1.10;;;14.60;98.90;;;;;;484321;245;28532;-74
2024/04/06 06:22:22;;;;;;;1.60;1.30;;;14.60;99.00;;;;;;484312;245;28802;-74
2024/04/06 06:24:22;;;;;;;2.60;1.53;;;14.60;99.10;;;;;;484291;245;28877;-73
2024/04/06 06:26:23;;;;;;;1.20;1.10;;;14.70;98.80;;;;;;484338;245;28873;-73
2024/04/06 06:28:24;;;;;;;1.50;1.40;;;14.70;99.20;;;;;;484342;245;29243;-73
2024/04/06 06:30:26;;;;;;;3.10;1.33;;;14.70;99.00;;;;;;484331;245;29400;-72
2024/04/06 06:32:27;;;;;;;4.23;1.70;;;14.70;98.90;;;;;;484341;245;29510;-72
2024/04/06 06:34:28;;;;;;;3.10;2.17;;;14.70;98.70;;;;;;484345;245;28812;-72
2024/04/06 06:36:29;;;;;;;6.30;1.50;;;14.80;98.60;;;;;;484342;245;28912;-73
2024/04/06 06:38:31;;;;;;;1.60;1.50;;;14.80;98.50;;;;;;484334;245;28806;-74
2024/04/06 06:40:32;;;;;;;2.37;1.57;;;14.80;98.80;;;;;;484301;245;28837;-74
2024/04/06 06:42:33;;;;;;;1.53;1.43;;;14.80;98.60;;;;;;484346;245;28836;-76
2024/04/06 06:44:34;;;;;;;2.23;1.50;;;14.80;98.30;;;;;;484347;245;28824;-74
2024/04/06 06:46:36;;;;;;;2.57;1.50;;;14.80;98.20;;;;;;484329;245;28842;-72
2024/04/06 06:48:37;;;;;;;2.03;1.50;;;14.80;98.20;;;;;;484318;245;28837;-71
2024/04/06 06:50:38;;;;;;;1.20;1.20;;;14.90;98.10;;;;;;484298;245;28923;-74
2024/04/06 06:52:39;;;;;;;1.53;1.43;;;14.80;98.00;;;;;;484313;245;29335;-74
2024/04/06 06:54:41;;;;;;;1.40;1.30;;;14.80;97.90;;;;;;484342;245;29330;-72
2024/04/06 06:56:42;;;;;;;2.00;1.50;;;14.80;97.80;;;;;;484332;245;29327;-73
2024/04/06 06:58:43;;;;;;;3.40;1.97;;;14.80;97.90;;;;;;484306;245;29252;-74
2024/04/06 07:00:44;;;;;;;1.80;1.70;;;14.70;98.00;;;;;;484324;245;28786;-74
2024/04/06 07:02:46;;;;;;;1.67;1.57;;;14.80;98.30;;;;;;484330;245;28927;-72
2024/04/06 07:04:47;;;;;;;1.90;1.70;;;14.80;98.30;;;;;;484302;245;28841;-72
2024/04/06 07:06:48;;;;;;;2.70;1.40;;;14.80;97.90;;;;;;484307;245;28836;-74
2024/04/06 07:08:50;;;;;;;1.40;1.30;;;14.90;98.60;;;;;;484339;245;29209;-75
2024/04/06 07:10:51;;;;;;;1.03;1.03;;;14.90;98.70;;;;;;484334;245;28817;-74
2024/04/06 07:12:52;;;;;;;1.70;1.43;;;14.90;98.20;;;;;;484315;245;28847;-74
2024/04/06 07:14:53;;;;;;;1.90;1.70;;;15.00;97.90;;;;;;484302;245;28879;-74
2024/04/06 07:16:54;;;;;;;1.43;1.27;;;15.10;98.00;;;;;;484308;245;29367;-74
2024/04/06 07:18:56;;;;;;;2.37;1.40;;;15.10;98.00;;;;;;484354;245;29307;-75
2024/04/06 07:20:57;;;;;;;1.80;1.47;;;15.10;98.10;;;;;;484327;245;29411;-74
2024/04/06 07:22:58;;;;;;;1.60;1.50;;;15.20;98.00;;;;;;484340;245;29331;-74
2024/04/06 07:24:59;;;;;;;1.57;1.37;;;15.20;98.20;;;;;;484311;245;28829;-72
2024/04/06 07:27:01;;;;;;;1.37;1.27;;;15.30;97.00;;;;;;484334;245;28809;-72
2024/04/06 07:29:02;;;;;;;1.70;1.60;;;15.30;97.90;;;;;;484314;245;28927;-75
2024/04/06 07:31:03;;;;;;;1.40;1.30;;;15.30;97.80;;;;;;484325;245;28920;-74
2024/04/06 07:33:04;;;;;;;4.50;1.33;;;15.30;98.20;;;;;;484321;245;28840;-72
2024/04/06 07:35:06;;;;;;;1.53;1.37;;;15.40;98.30;;;;;;484345;245;28818;-73
2024/04/06 07:37:07;;;;;;;1.97;1.30;;;15.40;98.00;;;;;;484339;245;28912;-72
2024/04/06 07:39:08;;;;;;;1.10;1.10;;;15.40;97.90;;;;;;484324;245;28877;-74
2024/04/06 07:41:09;;;;;;;2.30;1.30;;;15.40;97.80;;;;;;484320;245;28866;-72
2024/04/06 07:43:11;;;;;;;1.60;1.40;;;15.50;97.40;;;;;;484301;242;29302;-73
2024/04/06 07:45:12;;;;;;;1.90;1.10;;;15.70;97.30;;;;;;484329;245;29340;-75
2024/04/06 07:47:13;;;;;;;4.50;1.60;;;15.80;97.70;;;;;;484323;245;29340;-73
2024/04/06 07:49:14;;;;;;;3.13;1.37;;;15.90;96.60;;;;;;484334;245;28846;-74
2024/04/06 07:51:16;;;;;;;3.30;1.40;;;16.00;95.70;;;;;;484320;245;28801;-73
2024/04/06 07:53:17;;;;;;;4.13;1.13;;;16.00;95.70;;;;;;484327;245;28854;-73
2024/04/06 07:55:18;;;;;;;3.13;1.40;;;16.10;95.90;;;;;;484342;245;28837;-76
2024/04/06 07:57:19;;;;;;;2.67;1.50;;;16.20;96.20;;;;;;484332;245;28817;-72
2024/04/06 07:59:21;;;;;;;2.53;1.70;;;16.30;96.20;;;;;;484295;245;28857;-74
2024/04/06 08:01:22;;;;;;;5.50;1.20;;;16.30;95.80;;;;;;484319;245;28881;-74
2024/04/06 08:03:23;;;;;;;2.63;1.37;;;16.40;95.40;;;;;;484349;245;28815;-74
2024/04/06 08:05:24;;;;;;;2.83;1.53;;;16.50;94.70;;;;;;484321;245;28828;-74
2024/04/06 08:07:26;;;;;;;2.30;1.20;;;16.60;94.40;;;;;;484301;245;29300;-74
2024/04/06 08:09:27;;;;;;;1.60;1.50;;;16.70;94.00;;;;;;484260;245;29325;-72
2024/04/06 08:11:28;;;;;;;1.77;1.27;;;16.90;93.30;;;;;;484253;245;29398;-74
2024/04/06 08:13:29;;;;;;;1.50;1.30;;;17.00;93.30;;;;;;484272;245;28794;-72
2024/04/06 08:15:31;;;;;;;2.40;1.37;;;17.00;93.00;;;;;;484275;245;28820;-74
2024/04/06 08:17:32;;;;;;;2.37;1.60;;;17.00;93.40;;;;;;484277;245;28916;-74
2024/04/06 08:19:33;;;;;;;3.20;1.50;;;17.00;93.20;;;;;;484276;245;28896;-74
2024/04/06 08:21:34;;;;;;;4.50;1.20;;;17.00;92.90;;;;;;484353;245;28868;-74
2024/04/06 08:23:36;;;;;;;4.33;1.60;;;17.10;92.50;;;;;;484336;245;28815;-74
2024/04/06 08:25:37;;;;;;;1.40;1.30;;;17.10;92.10;;;;;;484305;245;28940;-73
2024/04/06 08:27:38;;;;;;;2.13;1.30;;;17.30;92.10;;;;;;484326;245;28812;-75
2024/04/06 08:29:39;;;;;;;1.60;1.40;;;17.40;93.00;;;;;;484352;245;28827;-74
2024/04/06 08:31:41;;;;;;;2.87;1.40;;;17.40;93.10;;;;;;484357;245;29317;-74
2024/04/06 08:33:42;;;;;;;1.17;1.17;;;17.40;92.30;;;;;;484348;245;29314;-72
2024/04/06 08:35:44;;;;;;;1.57;1.40;;;17.30;92.30;;;;;;484324;245;29324;-72
2024/04/06 08:37:44;;;;;;;1.47;1.37;;;17.40;92.30;;;;;;484333;245;29260;-72
2024/04/06 08:39:46;;;;;;;3.23;1.33;;;17.60;91.60;;;;;;484346;245;28879;-74
2024/04/06 08:41:47;;;;;;;1.70;1.60;;;17.80;91.40;;;;;;484294;245;28853;-74
2024/04/06 08:43:48;;;;;;;1.87;1.40;;;17.80;91.20;;;;;;484309;245;28900;-73
2024/04/06 08:45:50;;;;;;;2.07;1.30;;;17.70;91.00;;;;;;484311;245;28841;-72
2024/04/06 08:47:51;;;;;;;7.07;1.40;;;17.80;91.40;;;;;;484335;245;29206;-75
2024/04/06 08:49:52;;;;;;;2.50;1.10;;;17.90;91.10;;;;;;484322;245;28895;-74
2024/04/06 08:51:53;;;;;;;1.70;1.20;;;17.80;90.80;;;;;;484315;245;28835;-75
2024/04/06 08:53:54;;;;;;;1.63;1.30;;;17.80;91.10;;;;;;484320;245;28819;-72
2024/04/06 08:55:56;;;;;;;2.40;1.27;;;17.90;91.60;;;;;;484157;245;29346;-74
2024/04/06 08:57:57;;;;;;;1.20;1.10;;;17.90;92.20;;;;;;484333;245;29331;-76
2024/04/06 08:59:58;;;;;;;3.27;1.73;;;18.20;90.80;;;;;;484312;245;29354;-74
2024/04/06 09:01:59;;;;;;;1.30;1.20;;;18.20;90.60;;;;;;484298;243;29347;-74
2024/04/06 09:04:01;;;;;;;5.03;1.57;;;18.30;90.10;;;;;;484318;245;28811;-73
2024/04/06 09:06:02;;;;;;;2.10;1.30;;;18.20;90.70;;;;;;484332;245;28909;-74
2024/04/06 09:08:03;;;;;;;1.73;1.53;;;18.40;91.00;;;;;;484336;245;28910;-74
2024/04/06 09:10:05;;;;;;;1.40;1.23;;;18.50;90.00;;;;;;484307;245;28798;-74
2024/04/06 09:12:06;;;;;;;1.90;1.30;;;18.50;89.40;;;;;;484282;245;28845;-75
2024/04/06 09:14:08;;;;;;;1.57;1.47;;;18.60;90.60;;;;;;484322;245;28909;-73
2024/04/06 09:16:08;;;;;;;4.90;1.37;;;18.60;90.40;;;;;;484284;245;28800;-74
2024/04/06 09:18:10;;;;;;;2.23;1.27;;;18.70;90.00;;;;;;484313;245;28840;-74
2024/04/06 09:20:12;;;;;;;4.33;1.60;;;18.70;90.30;;;;;;484315;245;28907;-74
2024/04/06 09:22:12;;;;;;;2.00;1.40;;;18.80;90.80;;;;;;484195;245;29212;-73
2024/04/06 09:24:13;;;;;;;3.60;1.50;;;19.00;90.70;;;;;;484346;245;29383;-76
2024/04/06 09:26:15;;;;;;;5.13;1.50;;;19.10;90.00;;;;;;484289;245;29358;-74
2024/04/06 09:28:16;;;;;;;2.97;1.33;;;19.30;89.10;;;;;;484326;245;28839;-73
2024/04/06 09:30:17;;;;;;;2.17;1.30;;;19.40;89.70;;;;;;484295;245;28950;-74
2024/04/06 09:32:22;;;;;;;3.17;1.27;;;19.60;89.50;;;;;;484295;245;28908;-74
2024/04/06 09:34:22;;;;;;;1.63;1.30;;;19.80;89.30;;;;;;484203;245;28829;-73
2024/04/06 09:36:23;;;;;;;1.70;1.40;;;20.00;89.90;;;;;;484341;245;29282;-75
2024/04/06 09:38:25;;;;;;;1.37;1.17;;;20.30;86.20;;;;;;484291;245;28798;-73
2024/04/06 09:40:26;;;;;;;1.90;1.20;;;20.40;85.30;;;;;;484329;245;28912;-75
2024/04/06 09:42:27;;;;;;;1.43;1.10;;;20.30;84.80;;;;;;484307;245;28837;-74
2024/04/06 09:44:28;;;;;;;1.67;1.57;;;20.20;85.40;;;;;;484306;245;29312;-74
2024/04/06 09:46:30;;;;;;;1.77;1.40;;;20.10;84.60;;;;;;484307;245;29325;-74
2024/04/06 09:48:31;;;;;;;1.60;1.50;;;20.30;86.90;;;;;;484321;245;29309;-74
2024/04/06 09:50:33;;;;;;;2.07;1.30;;;20.40;85.60;;;;;;484322;245;29313;-74
2024/04/06 09:52:33;;;;;;;1.60;1.23;;;20.50;84.00;;;;;;484299;245;28952;-74
2024/04/06 09:54:35;;;;;;;1.40;1.30;;;20.70;87.00;;;;;;484216;245;28786;-74
2024/04/06 09:56:36;;;;;;;1.57;1.20;;;20.80;87.50;;;;;;484328;245;28867;-75
2024/04/06 09:58:37;;;;;;;1.27;1.17;;;20.90;86.10;;;;;;484335;245;28840;-74
2024/04/06 10:00:38;;;;;;;2.23;1.57;;;20.90;86.10;;;;;;484316;245;28847;-74
2024/04/06 10:02:40;;;;;;;1.70;1.30;;;21.00;81.10;;;;;;484352;245;29347;-75
2024/04/06 10:04:41;;;;;;;2.03;1.30;;;21.00;79.10;;;;;;484346;245;29224;-74
2024/04/06 10:06:42;;;;;;;1.47;1.23;;;21.10;83.00;;;;;;484334;245;28831;-74
2024/04/06 10:08:43;;;;;;;1.77;1.17;;;21.10;80.00;;;;;;484306;245;29391;-74
2024/04/06 10:10:45;;;;;;;2.00;1.37;;;21.10;79.60;;;;;;484319;245;29316;-74
2024/04/06 10:12:46;;;;;;;2.50;1.43;;;21.00;78.00;;;;;;484344;245;29315;-74
2024/04/06 10:14:47;;;;;;;1.23;1.13;;;20.80;78.70;;;;;;484322;245;29276;-74
2024/04/06 10:16:48;;;;;;;2.40;1.40;;;20.80;81.00;;;;;;484325;245;28824;-74
2024/04/06 10:18:50;;;;;;;1.50;1.40;;;20.90;78.00;;;;;;484353;245;28858;-74
2024/04/06 10:20:53;;;;;;;1.37;1.27;;;21.00;81.50;;;;;;484344;245;28808;-75
2024/04/06 10:22:52;;;;;;;1.30;1.20;;;21.00;82.70;;;;;;484217;245;28843;-75
2024/04/06 10:24:54;;;;;;;1.53;1.23;;;21.10;80.30;;;;;;484317;245;28812;-74
2024/04/06 10:26:55;;;;;;;1.47;1.37;;;21.10;77.90;;;;;;484307;245;28842;-74
2024/04/06 10:28:56;;;;;;;1.37;1.23;;;21.20;78.60;;;;;;484355;245;28825;-75
2024/04/06 10:30:57;;;;;;;1.33;1.23;;;21.20;79.80;;;;;;484338;245;28843;-74
2024/04/06 10:32:58;;;;;;;2.70;1.20;;;21.30;77.60;;;;;;484322;245;29310;-74